Time;durP1;ratioP1;P1;durP2;ratioP2;P2;SDS_P1;SDS_P2;PMS_P1;PMS_P2;Temp;Humidity;BMP_temperature;BMP_pressure;BME280_temperature;BME280_humidity;BME280_pressure;Samples;Min_cycle;Max_cycle;Signal;HPM_P1;HPM_P2
2021/03/11 04:05:02;;;;;;;10.90;5.05;;;;;;;-9.49;100.00;101325.11;1738871;77;21209;-66
2021/03/11 04:07:31;;;;;;;11.18;5.87;;;;;;;-9.26;100.00;101334.32;1751398;80;21230;-63
2021/03/11 04:09:59;;;;;;;11.28;5.47;;;;;;;-9.03;100.00;101341.42;1747452;80;21159;-63
2021/03/11 04:12:26;;;;;;;10.40;5.87;;;;;;;-8.77;100.00;101337.52;1750397;80;21097;-66
2021/03/11 04:14:54;;;;;;;10.55;5.47;;;;;;;-8.52;100.00;101338.64;1748269;80;20879;-65
2021/03/11 04:17:22;;;;;;;12.07;5.60;;;;;;;-8.25;100.00;101351.05;1749277;80;21209;-67
2021/03/11 04:19:50;;;;;;;14.87;5.00;;;;;;;-7.97;100.00;101350.37;1728289;80;21128;-64
2021/03/11 04:22:19;;;;;;;11.00;5.62;;;;;;;-7.70;100.00;101344.59;1725245;80;21235;-64
2021/03/11 04:24:46;;;;;;;10.15;5.03;;;;;;;-7.43;100.00;101346.00;1751674;80;21109;-63
2021/03/11 04:27:14;;;;;;;10.55;5.17;;;;;;;-7.17;100.00;101347.82;1748952;80;21139;-64
2021/03/11 04:29:44;;;;;;;11.00;5.25;;;;;;;-6.86;100.00;101349.89;1750250;80;21331;-63
2021/03/11 04:32:12;;;;;;;10.28;4.40;;;;;;;-6.57;100.00;101349.88;1727700;80;21179;-65
2021/03/11 04:34:39;;;;;;;11.45;4.60;;;;;;;-6.38;100.00;101354.77;1719644;82;21159;-64
2021/03/11 04:37:08;;;;;;;8.70;4.97;;;;;;;-6.31;100.00;101351.61;1750308;80;21033;-61
2021/03/11 04:39:36;;;;;;;11.00;5.78;;;;;;;-6.18;100.00;101349.89;1721704;82;21128;-64
2021/03/11 04:42:05;;;;;;;9.00;4.92;;;;;;;-5.99;100.00;101354.38;1748321;80;21358;-63
2021/03/11 04:44:33;;;;;;;11.03;5.03;;;;;;;-5.77;100.00;101346.84;1750390;80;21121;-63
2021/03/11 04:47:01;;;;;;;11.45;5.22;;;;;;;-5.61;100.00;101358.13;1748385;80;21005;-64
2021/03/11 04:49:30;;;;;;;12.05;6.28;;;;;;;-5.48;100.00;101364.91;1747994;80;21207;-64
2021/03/11 04:52:02;;;;;;;9.48;4.72;;;;;;;-5.30;100.00;101357.91;1750067;80;21199;-66
2021/03/11 04:54:30;;;;;;;10.28;5.47;;;;;;;-5.30;100.00;101357.91;1751219;80;21199;-65
2021/03/11 04:56:58;;;;;;;9.40;4.83;;;;;;;-5.36;100.00;101360.66;1749497;80;21073;-66
2021/03/11 04:59:26;;;;;;;9.00;5.33;;;;;;;-5.36;100.00;101364.47;1749023;80;21523;-64
2021/03/11 05:01:55;;;;;;;13.38;5.92;;;;;;;-5.36;100.00;101364.47;1746615;80;20930;-62
2021/03/11 05:04:23;;;;;;;9.58;5.25;;;;;;;-5.56;100.00;101371.97;1742486;80;21073;-64
2021/03/11 05:06:51;;;;;;;10.72;4.87;;;;;;;-6.00;100.00;101380.23;1734714;80;22426;-65
2021/03/11 05:09:21;;;;;;;9.60;5.42;;;;;;;-6.41;100.00;101380.23;1737839;80;21132;-63
2021/03/11 05:11:48;;;;;;;9.33;5.05;;;;;;;-6.69;100.00;101386.58;1737143;80;21543;-63
2021/03/11 05:14:16;;;;;;;10.88;4.92;;;;;;;-6.87;100.00;101390.03;1741393;80;21013;-64
2021/03/11 05:16:44;;;;;;;11.08;5.50;;;;;;;-6.99;100.00;101393.36;1737906;80;21099;-65
2021/03/11 05:19:12;;;;;;;12.15;5.70;;;;;;;-7.10;100.00;101385.61;1743094;80;22255;-65
2021/03/11 05:21:40;;;;;;;12.88;6.25;;;;;;;-7.10;100.00;101405.88;1739432;80;21224;-66
2021/03/11 05:24:09;;;;;;;10.32;5.62;;;;;;;-7.11;100.00;101400.43;1740319;80;21145;-65
2021/03/11 05:26:37;;;;;;;11.73;5.37;;;;;;;-7.18;100.00;101404.44;1739732;80;21016;-64
2021/03/11 05:29:06;;;;;;;12.28;5.42;;;;;;;-7.21;100.00;101404.08;1738178;80;21124;-64
2021/03/11 05:31:35;;;;;;;20.55;6.90;;;;;;;-7.15;100.00;101398.86;1739844;80;22109;-65
2021/03/11 05:34:03;;;;;;;15.63;7.05;;;;;;;-7.12;100.00;101406.81;1742317;80;21533;-63
2021/03/11 05:36:31;;;;;;;13.62;6.22;;;;;;;-7.27;100.00;101412.27;1740352;80;21527;-65
2021/03/11 05:39:04;;;;;;;14.28;6.28;;;;;;;-7.38;100.00;101418.91;1714055;81;21172;-65
2021/03/11 05:41:38;;;;;;;10.90;5.17;;;;;;;-7.46;100.00;101425.84;1737247;80;21133;-65
2021/03/11 05:44:08;;;;;;;11.12;5.53;;;;;;;-7.49;100.00;101436.08;1734636;80;21202;-66
2021/03/11 05:46:39;;;;;;;11.80;5.17;;;;;;;-7.47;100.00;101427.99;1737321;80;21258;-67
2021/03/11 05:49:10;;;;;;;;;;;;;;;-7.49;100.00;101452.55;1741767;80;21588;-67
2021/03/11 05:51:39;;;;;;;12.68;5.83;;;;;;;-7.52;100.00;101444.58;1764698;79;20331;-65
2021/03/11 05:54:08;;;;;;;10.08;5.37;;;;;;;-7.55;100.00;101443.37;1740107;80;21124;-67
2021/03/11 05:56:36;;;;;;;10.93;5.15;;;;;;;-7.46;100.00;101451.17;1739253;80;21211;-66
2021/03/11 05:59:05;;;;;;;9.15;4.28;;;;;;;-7.31;100.00;101449.95;1738376;80;21571;-66
2021/03/11 06:01:34;;;;;;;12.53;5.00;;;;;;;-7.19;100.00;101454.28;1730711;80;21508;-64
2021/03/11 06:04:02;;;;;;;11.10;5.80;;;;;;;-7.08;100.00;101458.22;1731977;80;21029;-66
2021/03/11 06:06:31;;;;;;;12.80;5.87;;;;;;;-6.99;100.00;101450.38;1737502;80;21124;-66
2021/03/11 06:08:59;;;;;;;11.18;5.75;;;;;;;-6.89;100.00;101446.73;1772552;78;22598;-65
2021/03/11 06:11:27;;;;;;;13.10;6.00;;;;;;;-6.70;100.00;101445.78;1775467;79;21014;-67
2021/03/11 06:13:55;;;;;;;10.60;5.28;;;;;;;-6.42;100.00;101458.48;1772608;79;21145;-65
2021/03/11 06:16:26;;;;;;;10.70;5.00;;;;;;;-6.08;100.00;101461.28;1773629;79;21059;-68
2021/03/11 06:18:53;;;;;;;9.98;4.95;;;;;;;-5.63;100.00;101454.72;1771164;79;21475;-65
2021/03/11 06:21:21;;;;;;;10.82;4.92;;;;;;;-5.24;94.24;101463.16;1775637;79;21544;-65
2021/03/11 06:23:50;;;;;;;10.30;4.80;;;;;;;-5.11;87.10;101461.45;1770953;79;20959;-66
2021/03/11 06:26:18;;;;;;;10.85;5.92;;;;;;;-4.86;84.26;101453.81;1739590;80;20911;-68
2021/03/11 06:28:51;;;;;;;9.63;5.40;;;;;;;-4.46;80.68;101459.55;1701123;82;21233;-65
2021/03/11 06:31:25;;;;;;;11.90;6.47;;;;;;;-4.14;72.51;101461.31;1776229;79;20974;-64
2021/03/11 06:33:55;;;;;;;11.65;5.75;;;;;;;-4.15;68.29;101460.48;1776236;79;21369;-65
2021/03/11 06:36:25;;;;;;;10.10;5.30;;;;;;;-4.07;67.16;101454.66;1772974;79;20962;-64
2021/03/11 06:38:54;;;;;;;10.75;5.72;;;;;;;-3.77;65.87;101456.43;1743082;80;21176;-64
2021/03/11 06:41:24;;;;;;;10.13;5.33;;;;;;;-3.62;60.95;101451.16;1773223;79;21132;-65
2021/03/11 06:44:01;;;;;;;11.18;6.28;;;;;;;-3.61;60.37;101450.27;1775495;79;21125;-67
2021/03/11 06:46:30;;;;;;;10.58;5.95;;;;;;;-3.44;61.59;101434.30;1776802;79;21193;-65
2021/03/11 06:49:08;;;;;;;9.55;6.37;;;;;;;-3.30;59.31;101452.81;1775658;79;20927;-66
2021/03/11 06:51:37;;;;;;;12.03;7.03;;;;;;;-3.09;59.72;101452.36;1774843;78;21097;-68
2021/03/11 06:54:08;;;;;;;13.98;6.50;;;;;;;-2.94;56.95;101447.88;1775403;79;21499;-65
2021/03/11 06:56:42;;;;;;;13.00;6.70;;;;;;;-3.01;55.17;101461.78;1772237;79;25025;-65
2021/03/11 06:59:10;;;;;;;15.45;5.97;;;;;;;-3.00;55.79;101437.92;1775260;79;21209;-65
2021/03/11 07:01:49;;;;;;;12.45;6.08;;;;;;;-2.87;54.56;101438.23;1772605;79;21164;-68
2021/03/11 07:04:24;;;;;;;10.65;6.25;;;;;;;-2.72;53.25;101449.03;1779173;78;20975;-64
2021/03/11 07:06:51;;;;;;;12.30;7.40;;;;;;;-2.74;53.45;101445.71;1774360;79;21161;-64
2021/03/11 07:09:19;;;;;;;10.43;5.80;;;;;;;-2.65;53.22;101441.48;1776441;79;21567;-68
2021/03/11 07:11:53;;;;;;;16.57;7.55;;;;;;;-2.55;52.76;101440.61;1763103;79;22568;-65
2021/03/11 07:14:28;;;;;;;11.95;7.15;;;;;;;-2.33;53.30;101446.39;1774468;79;21133;-65
2021/03/11 07:17:21;;;;;;;17.65;6.62;;;;;;;-2.18;50.87;101455.06;1775259;79;21101;-63
2021/03/11 07:20:09;;;;;;;12.10;5.95;;;;;;;-2.15;49.92;101457.48;1766507;78;21075;-65
2021/03/11 07:22:37;;;;;;;13.00;7.17;;;;;;;-2.15;49.49;101446.45;1760746;79;21161;-64
2021/03/11 07:25:30;;;;;;;13.13;7.00;;;;;;;-2.06;48.98;101450.66;1751302;78;21145;-63
2021/03/11 07:28:00;;;;;;;13.05;6.95;;;;;;;-2.18;48.58;101455.52;1768910;79;21042;-66
2021/03/11 07:30:28;;;;;;;15.05;7.33;;;;;;;-2.27;48.53;101453.78;1775071;79;21655;-64
2021/03/11 07:33:04;;;;;;;15.00;7.25;;;;;;;-2.27;49.38;101451.23;1771859;79;21197;-67
2021/03/11 07:35:32;;;;;;;12.80;8.28;;;;;;;-2.13;48.79;101452.30;1767906;79;21147;-65
2021/03/11 07:40:39;;;;;;;12.07;6.27;;;;;;;-1.62;48.13;101468.15;1818939;77;21963;-63
2021/03/11 07:43:06;;;;;;;11.15;6.85;;;;;;;-1.75;47.45;101444.89;1796771;79;21609;-63
2021/03/11 07:45:36;;;;;;;12.43;7.10;;;;;;;-1.78;46.34;101451.88;1738705;80;22168;-67
2021/03/11 07:48:05;;;;;;;16.05;7.60;;;;;;;-1.82;45.65;101448.67;1765204;80;21636;-64
2021/03/11 07:50:33;;;;;;;10.43;6.62;;;;;;;-1.79;46.03;101451.06;1732498;81;20967;-64
2021/03/11 07:53:01;;;;;;;13.83;7.33;;;;;;;-1.88;45.82;101445.12;1730254;81;21103;-64
2021/03/11 07:55:29;;;;;;;13.60;7.75;;;;;;;-1.87;45.93;101445.95;1735445;81;21624;-65
2021/03/11 07:57:58;;;;;;;15.32;8.48;;;;;;;-1.94;45.72;101444.13;1740392;82;21364;-65
2021/03/11 08:00:27;;;;;;;13.70;6.85;;;;;;;-1.91;46.67;101440.16;1735877;81;21074;-64
2021/03/11 08:03:03;;;;;;;12.13;6.22;;;;;;;-1.89;45.71;101446.03;1756792;80;21587;-64
2021/03/11 08:05:31;;;;;;;12.05;6.83;;;;;;;-1.96;45.04;101439.56;1748601;80;21050;-65
2021/03/11 08:08:22;;;;;;;11.90;6.65;;;;;;;-1.96;45.12;101440.84;1739038;80;21063;-64
2021/03/11 08:11:01;;;;;;;11.60;7.87;;;;;;;-1.89;45.19;101442.66;1749886;81;25963;-64
2021/03/11 08:13:37;;;;;;;14.98;7.55;;;;;;;-1.76;46.08;101441.97;1754036;81;21022;-65
2021/03/11 08:16:19;;;;;;;10.60;6.78;;;;;;;-1.50;45.84;101434.76;1755589;81;21114;-65
2021/03/11 08:18:48;;;;;;;14.83;7.53;;;;;;;-1.22;44.36;101431.16;1754089;81;21247;-65
2021/03/11 08:21:31;;;;;;;11.88;7.65;;;;;;;-1.10;43.62;101431.44;1750081;81;20927;-67
2021/03/11 08:23:58;;;;;;;12.33;6.70;;;;;;;-0.97;44.06;101429.92;1747963;81;21275;-63
2021/03/11 08:26:41;;;;;;;13.62;7.17;;;;;;;-0.88;43.24;101430.70;1750232;81;21042;-65
2021/03/11 08:29:25;;;;;;;11.63;6.75;;;;;;;-0.95;43.83;101422.97;1748921;81;21203;-65
2021/03/11 08:31:54;;;;;;;13.25;7.58;;;;;;;-0.87;42.91;101422.57;1725283;82;21162;-63
2021/03/11 08:34:38;;;;;;;10.40;6.90;;;;;;;-0.84;43.00;101433.94;1727127;81;21180;-64
2021/03/11 08:37:15;;;;;;;10.23;5.75;;;;;;;-0.91;42.99;101429.61;1744798;81;21383;-64
2021/03/11 08:39:43;;;;;;;13.05;6.72;;;;;;;-0.89;43.28;101422.66;1741448;81;21159;-64
2021/03/11 08:42:46;;;;;;;11.20;6.83;;;;;;;-0.79;43.90;101420.45;1748261;81;20982;-66
2021/03/11 08:45:40;;;;;;;11.25;6.58;;;;;;;-0.45;43.94;101425.05;1804196;79;21165;-63
2021/03/11 08:48:22;;;;;;;10.70;6.80;;;;;;;0.04;42.60;101421.89;1718256;81;21438;-65
2021/03/11 08:50:54;;;;;;;11.08;6.85;;;;;;;0.24;42.19;101422.03;1756841;80;21202;-64
2021/03/11 08:53:44;;;;;;;10.25;6.30;;;;;;;0.29;41.74;101411.05;1762752;80;21133;-65
2021/03/11 08:56:31;;;;;;;13.10;6.75;;;;;;;0.21;42.02;101415.79;1791318;79;21218;-65
2021/03/11 08:59:07;;;;;;;10.45;6.33;;;;;;;0.18;42.06;101418.52;1803933;78;21211;-66
2021/03/11 09:01:49;;;;;;;10.00;5.22;;;;;;;-0.15;42.31;101418.25;1797811;78;20998;-64
2021/03/11 09:04:27;;;;;;;8.73;5.12;;;;;;;-0.72;42.13;101419.66;1796654;79;22147;-65
2021/03/11 09:07:13;;;;;;;9.35;5.58;;;;;;;-1.32;44.31;101440.69;1804220;79;21100;-63
2021/03/11 09:09:49;;;;;;;8.78;5.30;;;;;;;-1.49;45.68;101417.22;1739422;80;21050;-66
2021/03/11 09:12:37;;;;;;;9.93;5.35;;;;;;;-1.53;45.77;101414.45;1763308;80;21205;-65
2021/03/11 09:15:08;;;;;;;8.80;4.92;;;;;;;-1.48;46.38;101423.98;1736009;82;21168;-67
2021/03/11 09:17:37;;;;;;;9.28;4.78;;;;;;;-1.40;46.33;101418.48;1740171;82;22564;-64
2021/03/11 09:20:13;;;;;;;11.35;4.83;;;;;;;-1.34;46.08;101421.56;1742753;81;21026;-63
2021/03/11 09:22:47;;;;;;;9.80;4.80;;;;;;;-1.33;46.20;101416.81;1803435;79;21038;-63
2021/03/11 09:25:24;;;;;;;7.45;4.37;;;;;;;-1.15;46.72;101421.91;1794954;79;20928;-65
2021/03/11 09:27:59;;;;;;;10.43;5.10;;;;;;;-0.89;46.21;101423.13;1746602;80;21588;-64
2021/03/11 09:30:37;;;;;;;9.73;4.78;;;;;;;-0.65;45.88;101413.30;1736669;82;21269;-64
2021/03/11 09:33:21;;;;;;;8.25;4.20;;;;;;;-0.65;44.32;101414.58;1731651;82;21519;-65
2021/03/11 09:35:51;;;;;;;10.30;5.30;;;;;;;-0.65;44.23;101409.46;1757117;80;21593;-64
2021/03/11 09:38:25;;;;;;;11.12;5.62;;;;;;;-0.76;44.86;101401.92;1772332;80;21058;-66
2021/03/11 09:40:56;;;;;;;9.48;4.65;;;;;;;-0.72;45.31;101409.41;1767081;80;21137;-64
2021/03/11 09:43:30;;;;;;;7.30;3.60;;;;;;;-0.72;44.30;101410.69;1722964;82;21274;-64
2021/03/11 09:46:14;;;;;;;7.95;4.30;;;;;;;-0.76;43.30;101417.28;1748981;81;20951;-64
2021/03/11 09:48:50;;;;;;;9.58;5.22;;;;;;;-0.83;42.27;101417.23;1748460;81;21603;-65
2021/03/11 09:51:31;;;;;;;12.45;4.83;;;;;;;-1.06;42.78;101413.74;1749083;81;20960;-62
2021/03/11 09:54:04;;;;;;;13.00;6.08;;;;;;;-1.01;42.77;101415.63;1753680;81;22607;-63
2021/03/11 09:56:41;;;;;;;7.95;4.65;;;;;;;-0.70;42.71;101411.45;1750664;81;21345;-63
2021/03/11 09:59:14;;;;;;;13.68;5.03;;;;;;;-0.28;42.25;101402.70;1751166;81;21116;-62
2021/03/11 10:01:46;;;;;;;9.70;3.65;;;;;;;-0.03;40.80;101404.73;1746209;81;21639;-63
2021/03/11 10:04:23;;;;;;;8.93;4.17;;;;;;;0.02;40.15;101404.47;1753877;81;21089;-63
2021/03/11 10:07:01;;;;;;;8.10;3.60;;;;;;;0.12;40.23;101394.08;1748730;81;21348;-63
2021/03/11 10:09:38;;;;;;;7.67;3.65;;;;;;;-0.07;37.96;101394.75;1753120;81;21275;-65
2021/03/11 10:12:08;;;;;;;8.03;3.60;;;;;;;-0.58;39.87;101392.86;1751224;81;21050;-64
2021/03/11 10:14:37;;;;;;;5.55;3.20;;;;;;;-0.49;40.30;101394.94;1753479;81;21179;-65
2021/03/11 10:17:07;;;;;;;8.50;3.85;;;;;;;-0.38;39.49;101392.62;1744974;81;21140;-63
2021/03/11 10:19:36;;;;;;;7.35;3.90;;;;;;;-0.46;39.81;101396.03;1754990;81;20990;-65
2021/03/11 10:22:10;;;;;;;8.08;3.72;;;;;;;-0.30;39.81;101387.89;1742249;81;21287;-63
2021/03/11 10:24:51;;;;;;;8.25;3.98;;;;;;;-0.22;39.43;101383.63;1752029;81;21104;-65
2021/03/11 10:27:27;;;;;;;6.92;2.98;;;;;;;-0.26;39.03;101362.92;1751447;81;21095;-64
2021/03/11 10:30:12;;;;;;;12.53;3.80;;;;;;;-0.54;38.09;101389.22;1747151;81;21555;-65
2021/03/11 10:32:42;;;;;;;7.90;4.00;;;;;;;-0.88;39.23;101382.53;1754161;81;21231;-65
2021/03/11 10:35:24;;;;;;;8.00;3.58;;;;;;;-1.03;40.98;101380.33;1749644;81;21157;-63
2021/03/11 10:37:52;;;;;;;;;;;;;;;-0.93;39.43;101401.98;1752569;81;21617;-67
2021/03/11 10:40:25;;;;;;;6.17;2.80;;;;;;;-1.34;38.96;101374.70;1747321;81;20294;-63
2021/03/11 10:42:54;;;;;;;10.55;3.33;;;;;;;-1.54;38.80;101380.38;1735724;81;21562;-63
2021/03/11 10:45:25;;;;;;;5.78;2.90;;;;;;;-1.62;38.91;101371.45;1746535;81;21596;-63
2021/03/11 10:48:05;;;;;;;9.30;3.00;;;;;;;-1.67;37.18;101365.73;1805766;78;22211;-63
2021/03/11 10:50:49;;;;;;;6.80;2.67;;;;;;;-1.74;38.59;101360.94;1807430;78;21211;-63
2021/03/11 10:53:19;;;;;;;4.67;2.45;;;;;;;-1.53;36.02;101364.59;1794718;78;21180;-65
2021/03/11 10:55:48;;;;;;;6.40;2.33;;;;;;;-1.50;34.80;101363.16;1744283;80;21083;-63
2021/03/11 10:58:23;;;;;;;6.30;2.30;;;;;;;-1.55;35.21;101358.74;1767484;80;21129;-64
2021/03/11 11:01:13;;;;;;;5.85;2.50;;;;;;;-1.39;34.81;101353.66;1734159;81;21600;-63
2021/03/11 11:03:42;;;;;;;5.53;2.58;;;;;;;-1.12;34.96;101359.08;1724587;82;21691;-64
2021/03/11 11:06:10;;;;;;;6.17;2.55;;;;;;;-1.12;32.88;101352.22;1762765;80;21117;-64
2021/03/11 11:08:44;;;;;;;5.85;2.80;;;;;;;-1.22;32.98;101353.14;1767039;80;21066;-63
2021/03/11 11:11:13;;;;;;;6.35;3.40;;;;;;;-1.29;33.37;101349.28;1742774;81;21598;-63
2021/03/11 11:13:42;;;;;;;6.25;2.37;;;;;;;-1.39;33.32;101351.93;1771614;80;21180;-63
2021/03/11 11:16:11;;;;;;;8.53;3.05;;;;;;;-1.50;33.08;101340.97;1770049;80;21580;-64
2021/03/11 11:18:39;;;;;;;6.50;3.05;;;;;;;-1.46;33.72;101336.52;1769398;80;20983;-65
2021/03/11 11:21:08;;;;;;;6.78;3.22;;;;;;;-1.26;33.74;101347.81;1757002;81;21204;-63
2021/03/11 11:23:37;;;;;;;6.47;2.87;;;;;;;-1.26;33.29;101335.02;1752465;81;21145;-63
2021/03/11 11:26:06;;;;;;;5.08;2.72;;;;;;;-1.12;32.40;101327.09;1748454;81;21393;-63
2021/03/11 11:28:35;;;;;;;8.75;2.37;;;;;;;-1.11;31.75;101336.41;1753066;81;21204;-65
2021/03/11 11:31:03;;;;;;;6.35;2.52;;;;;;;-1.39;32.40;101337.86;1748956;81;21144;-63
2021/03/11 11:33:31;;;;;;;4.33;2.22;;;;;;;-1.59;31.92;101337.62;1750564;81;21191;-65
2021/03/11 11:35:59;;;;;;;5.55;2.45;;;;;;;-1.70;31.97;101342.45;1755099;81;20993;-64
2021/03/11 11:38:27;;;;;;;6.33;2.50;;;;;;;-1.78;32.67;101339.42;1755747;81;21200;-66
2021/03/11 11:40:55;;;;;;;4.67;2.12;;;;;;;-1.90;32.85;101331.92;1739626;81;21046;-65
2021/03/11 11:43:22;;;;;;;7.37;3.17;;;;;;;-1.90;33.29;101328.55;1735861;81;21058;-67
2021/03/11 11:45:50;;;;;;;6.92;2.92;;;;;;;-1.76;33.73;101331.23;1729096;81;21018;-66
2021/03/11 11:48:17;;;;;;;7.03;2.72;;;;;;;-1.59;33.23;101323.98;1798358;79;21058;-67
2021/03/11 11:50:52;;;;;;;5.30;3.05;;;;;;;-1.58;33.47;101329.03;1722692;80;21462;-67
2021/03/11 11:53:18;;;;;;;4.85;2.40;;;;;;;-1.68;33.68;101323.19;1758868;81;21683;-66
2021/03/11 11:55:46;;;;;;;7.87;2.90;;;;;;;-1.86;33.87;101333.88;1751988;80;21474;-66
2021/03/11 11:58:14;;;;;;;6.65;2.52;;;;;;;-2.07;34.41;101325.56;1745640;81;21411;-64
2021/03/11 12:00:44;;;;;;;8.03;2.70;;;;;;;-2.04;34.64;101320.30;1729077;82;21241;-64
2021/03/11 12:03:12;;;;;;;6.55;2.60;;;;;;;-1.87;34.40;101320.73;1784881;79;22260;-63
2021/03/11 12:05:41;;;;;;;7.80;2.77;;;;;;;-2.04;34.28;101328.79;1730428;80;21225;-64
2021/03/11 12:08:09;;;;;;;8.48;2.95;;;;;;;-2.23;35.01;101320.38;1740733;80;21142;-65
2021/03/11 12:10:37;;;;;;;5.90;2.65;;;;;;;-2.23;34.59;101324.20;1716250;82;21467;-64
2021/03/11 12:13:07;;;;;;;9.03;3.60;;;;;;;-2.24;34.56;101326.36;1731624;81;22277;-64
2021/03/11 12:15:35;;;;;;;5.33;2.50;;;;;;;-2.31;34.87;101327.14;1728498;80;21367;-65
2021/03/11 12:18:04;;;;;;;7.62;3.55;;;;;;;-2.29;34.84;101329.15;1744442;81;21839;-69
2021/03/11 12:20:35;;;;;;;8.05;3.22;;;;;;;-2.35;35.08;101316.70;1743472;81;21293;-64
2021/03/11 12:23:05;;;;;;;7.85;3.35;;;;;;;-2.33;35.14;101321.27;1737299;81;21224;-63
2021/03/11 12:25:34;;;;;;;5.85;2.92;;;;;;;-2.19;34.71;101319.33;1780894;79;21122;-64
2021/03/11 12:28:03;;;;;;;6.45;2.65;;;;;;;-2.06;34.56;101328.48;1739814;80;22169;-62
2021/03/11 12:30:31;;;;;;;7.00;3.02;;;;;;;-2.11;33.93;101329.98;1736650;81;21193;-63
2021/03/11 12:32:59;;;;;;;7.97;3.33;;;;;;;-2.17;34.15;101332.01;1733564;82;21038;-62
2021/03/11 12:35:27;;;;;;;8.13;3.15;;;;;;;-2.56;34.43;101333.02;1790394;79;20959;-65
2021/03/11 12:37:57;;;;;;;5.40;3.00;;;;;;;-2.76;35.61;101334.78;1727258;80;21194;-65
2021/03/11 12:40:25;;;;;;;5.20;2.20;;;;;;;-2.77;34.93;101331.01;1761436;80;22423;-62
2021/03/11 12:42:53;;;;;;;7.33;2.72;;;;;;;-2.84;35.23;101333.46;1755795;80;21189;-63
2021/03/11 12:45:22;;;;;;;6.90;2.83;;;;;;;-2.82;35.81;101335.51;1762770;80;20986;-62
2021/03/11 12:47:50;;;;;;;14.45;4.03;;;;;;;-2.82;34.92;101333.78;1723803;82;21688;-63
2021/03/11 12:50:19;;;;;;;9.08;3.55;;;;;;;-2.90;35.44;101326.93;1744923;81;21962;-64
2021/03/11 12:52:47;;;;;;;6.60;3.20;;;;;;;-2.82;36.23;101327.41;1740751;81;21149;-63
2021/03/11 12:55:15;;;;;;;8.58;4.20;;;;;;;-2.70;35.67;101327.28;1746882;81;21195;-62
2021/03/11 12:57:45;;;;;;;7.20;2.92;;;;;;;-2.72;35.59;101322.26;1786841;79;21105;-64
2021/03/11 13:00:15;;;;;;;5.90;3.10;;;;;;;-2.80;35.72;101317.97;1788879;79;21762;-63
2021/03/11 13:02:44;;;;;;;8.70;3.95;;;;;;;-2.96;36.06;101316.99;1725449;80;21148;-63
2021/03/11 13:05:12;;;;;;;8.55;3.52;;;;;;;-3.08;36.84;101315.83;1764449;81;22629;-63
2021/03/11 13:07:42;;;;;;;5.83;3.00;;;;;;;-3.12;36.93;101319.88;1757171;80;21647;-66
2021/03/11 13:10:13;;;;;;;7.47;3.20;;;;;;;-3.16;35.66;101307.70;1786579;79;21189;-63
2021/03/11 13:12:42;;;;;;;5.92;3.05;;;;;;;-3.23;35.23;101312.70;1786942;79;21460;-63
2021/03/11 13:15:13;;;;;;;7.83;2.70;;;;;;;-3.33;34.77;101295.72;1781321;79;21667;-64
2021/03/11 13:17:42;;;;;;;7.08;2.60;;;;;;;-3.48;34.20;101304.05;1785865;79;21204;-62
2021/03/11 13:20:14;;;;;;;5.67;2.72;;;;;;;-3.70;35.05;101301.14;1788477;79;21192;-63
2021/03/11 13:22:43;;;;;;;7.45;3.35;;;;;;;-3.80;35.39;101303.70;1786054;79;21337;-63
2021/03/11 13:25:14;;;;;;;8.28;4.28;;;;;;;-3.81;36.09;101306.32;1784779;79;21041;-66
2021/03/11 13:27:43;;;;;;;7.33;4.28;;;;;;;-3.84;36.42;101305.99;1781223;79;21891;-64
2021/03/11 13:30:13;;;;;;;11.97;4.95;;;;;;;-3.92;36.75;101313.13;1780804;79;21224;-64
2021/03/11 13:32:41;;;;;;;7.85;3.30;;;;;;;-3.97;37.58;101303.59;1785058;79;20987;-64
2021/03/11 13:35:11;;;;;;;9.25;4.47;;;;;;;-3.97;37.35;101309.52;1794058;79;21010;-67
2021/03/11 13:37:41;;;;;;;7.53;3.25;;;;;;;-3.98;37.15;101309.56;1793603;79;20990;-63
2021/03/11 13:40:10;;;;;;;6.95;3.55;;;;;;;-3.95;36.93;101309.44;1726756;81;21181;-65
2021/03/11 13:42:38;;;;;;;10.32;5.83;;;;;;;-3.99;36.95;101305.36;1748774;80;22329;-63
2021/03/11 13:45:07;;;;;;;8.80;3.72;;;;;;;-4.05;37.54;101307.73;1756199;80;21236;-67
2021/03/11 13:47:35;;;;;;;7.95;3.25;;;;;;;-4.10;37.20;101308.80;1755970;81;21117;-66
2021/03/11 13:50:06;;;;;;;7.70;3.40;;;;;;;-4.23;37.77;101297.86;1748795;80;21211;-64
2021/03/11 13:52:34;;;;;;;8.35;3.12;;;;;;;-4.34;37.97;101301.28;1731721;82;21177;-63
2021/03/11 13:55:06;;;;;;;6.58;3.17;;;;;;;-4.48;37.84;101298.45;1726168;82;21382;-63
2021/03/11 13:57:34;;;;;;;10.38;3.33;;;;;;;-4.63;38.14;101305.42;1733489;82;21221;-63
2021/03/11 14:00:08;;;;;;;6.25;3.27;;;;;;;-4.74;38.34;101300.30;1711182;81;21062;-62
2021/03/11 14:02:37;;;;;;;10.85;4.15;;;;;;;-4.85;39.03;101293.97;1791247;79;21132;-63
2021/03/11 14:05:09;;;;;;;8.85;3.80;;;;;;;-4.90;39.41;101321.67;1733386;82;21097;-61
2021/03/11 14:07:37;;;;;;;6.80;2.80;;;;;;;-5.03;39.20;101300.16;1743325;81;21205;-61
2021/03/11 14:10:07;;;;;;;7.95;3.17;;;;;;;-5.15;38.31;101300.63;1754747;81;21589;-63
2021/03/11 14:12:36;;;;;;;28.67;13.72;;;;;;;-5.30;38.92;101293.11;1736862;82;21117;-68
2021/03/11 14:15:06;;;;;;;8.18;3.52;;;;;;;-5.41;39.75;101290.95;1734472;81;21661;-64
2021/03/11 14:17:34;;;;;;;7.47;3.40;;;;;;;-5.48;40.25;101284.87;1737712;81;21200;-64
2021/03/11 14:20:04;;;;;;;8.10;3.50;;;;;;;-5.57;40.93;101293.64;1733009;81;21278;-62
2021/03/11 14:22:32;;;;;;;9.28;4.25;;;;;;;-5.58;41.10;101294.97;1725438;81;21089;-66
2021/03/11 14:25:01;;;;;;;8.78;3.52;;;;;;;-5.60;41.59;101300.56;1720875;81;20975;-64
2021/03/11 14:27:29;;;;;;;8.65;3.62;;;;;;;-5.63;41.78;101295.14;1733800;81;21217;-64
2021/03/11 14:29:57;;;;;;;5.62;2.67;;;;;;;-5.67;40.98;101303.31;1735628;81;21122;-62
2021/03/11 14:32:26;;;;;;;5.70;2.80;;;;;;;-5.76;39.29;101306.59;1736471;81;21429;-67
2021/03/11 14:34:55;;;;;;;6.58;2.70;;;;;;;-5.88;39.00;101315.47;1732534;82;21157;-62
2021/03/11 14:37:24;;;;;;;7.08;3.25;;;;;;;-6.02;38.68;101313.85;1786969;79;21007;-63
2021/03/11 14:39:53;;;;;;;6.97;3.42;;;;;;;-6.15;39.04;101309.19;1732048;80;21184;-64
2021/03/11 14:42:21;;;;;;;29.48;14.35;;;;;;;-6.24;40.35;101305.70;1722826;82;21203;-65
2021/03/11 14:44:49;;;;;;;17.92;8.13;;;;;;;-6.30;41.31;101302.52;1750471;81;22945;-62
2021/03/11 14:47:18;;;;;;;7.90;4.33;;;;;;;-6.34;41.65;101303.05;1726069;82;21244;-62
2021/03/11 14:49:46;;;;;;;7.50;3.45;;;;;;;-6.40;41.98;101297.76;1782703;79;21644;-64
2021/03/11 14:52:14;;;;;;;8.93;4.30;;;;;;;-6.44;42.62;101302.95;1780386;79;21138;-62
2021/03/11 14:54:47;;;;;;;9.18;3.10;;;;;;;-6.51;42.67;101307.41;1785787;79;21129;-64
2021/03/11 14:57:16;;;;;;;8.68;2.65;;;;;;;-6.61;42.47;101319.53;1773779;79;21266;-63
2021/03/11 14:59:46;;;;;;;7.10;3.15;;;;;;;-6.72;41.33;101316.94;1782618;79;21863;-66
2021/03/11 15:02:14;;;;;;;8.23;3.02;;;;;;;-6.82;42.03;101315.11;1711548;83;21121;-67
2021/03/11 15:04:44;;;;;;;7.28;3.60;;;;;;;-6.90;43.10;101314.52;1716179;81;21129;-68
2021/03/11 15:07:12;;;;;;;9.68;3.60;;;;;;;-6.98;43.90;101309.67;1771827;79;22477;-62
2021/03/11 15:09:40;;;;;;;10.18;3.95;;;;;;;-7.04;44.09;101316.64;1774490;79;21216;-67
2021/03/11 15:12:10;;;;;;;10.03;3.33;;;;;;;-7.12;43.82;101318.14;1785191;79;21159;-67
2021/03/11 15:14:38;;;;;;;16.00;7.50;;;;;;;-7.23;43.93;101318.44;1734635;82;21612;-67
2021/03/11 15:17:06;;;;;;;22.55;11.85;;;;;;;-7.31;44.08;101325.83;1783070;79;22451;-65
2021/03/11 15:19:35;;;;;;;15.48;10.35;;;;;;;-7.40;44.47;101324.40;1785226;79;21627;-65
2021/03/11 15:22:03;;;;;;;10.60;4.90;;;;;;;-7.50;45.10;101325.52;1783432;79;21331;-64
2021/03/11 15:24:31;;;;;;;10.80;7.30;;;;;;;-7.59;45.43;101328.69;1711384;82;21208;-65
2021/03/11 15:27:00;;;;;;;11.12;5.92;;;;;;;-7.67;45.78;101328.06;1736477;81;21541;-64
2021/03/11 15:29:28;;;;;;;8.30;4.05;;;;;;;-7.74;46.06;101340.48;1735027;81;21162;-67
2021/03/11 15:31:58;;;;;;;9.63;4.15;;;;;;;-7.82;46.34;101336.06;1724376;82;21199;-64
2021/03/11 15:34:26;;;;;;;10.23;4.55;;;;;;;-7.87;46.76;101340.42;1721394;82;21387;-64
2021/03/11 15:36:54;;;;;;;9.18;4.12;;;;;;;-7.93;47.07;101341.83;1754364;79;21567;-65
2021/03/11 15:39:22;;;;;;;12.55;4.58;;;;;;;-7.99;47.64;101344.50;1785279;79;21046;-68
2021/03/11 15:41:50;;;;;;;11.65;4.58;;;;;;;-8.05;48.49;101349.73;1790304;79;21136;-65
2021/03/11 15:44:20;;;;;;;13.45;5.22;;;;;;;-8.12;49.30;101358.72;1739545;80;21652;-69